createdAt,value
2024-03-30T00:00:10.297Z,0.50
2024-03-30T00:02:06.278Z,0.50
2024-03-30T00:03:30.866Z,0.50
2024-03-30T00:04:05.850Z,0.50
2024-03-30T00:05:12.259Z,0.50
2024-03-30T00:06:11.828Z,0.50
2024-03-30T00:07:17.423Z,0.50
2024-03-30T00:10:06.830Z,0.50
2024-03-30T00:12:14.055Z,0.50
2024-03-30T00:13:24.526Z,0.50
2024-03-30T00:17:13.945Z,0.50
2024-03-30T00:19:21.432Z,0.50
2024-03-30T00:20:13.906Z,0.50
2024-03-30T00:21:37.011Z,0.50
2024-03-30T00:22:13.915Z,0.50
2024-03-30T00:23:13.902Z,0.50
2024-03-30T00:24:13.901Z,0.50
2024-03-30T00:25:13.906Z,0.50
2024-03-30T00:26:13.903Z,0.50
2024-03-30T00:27:13.923Z,0.50
2024-03-30T00:28:13.929Z,0.50
2024-03-30T00:29:13.934Z,0.50
2024-03-30T00:30:13.964Z,0.50
2024-03-30T00:31:13.953Z,0.50
2024-03-30T00:32:13.956Z,0.50
2024-03-30T00:33:13.972Z,0.50
2024-03-30T00:34:13.968Z,0.51
2024-03-30T00:35:13.978Z,0.50
2024-03-30T00:36:13.984Z,0.50
2024-03-30T00:37:13.983Z,0.50
2024-03-30T00:38:13.995Z,0.50
2024-03-30T00:39:13.996Z,0.50
2024-03-30T00:40:14.010Z,0.50
2024-03-30T00:41:14.010Z,0.51
2024-03-30T00:42:14.017Z,0.52
2024-03-30T00:43:14.022Z,0.51
2024-03-30T00:44:14.028Z,0.51
2024-03-30T00:45:14.041Z,0.51
2024-03-30T00:46:14.044Z,0.51
2024-03-30T00:47:14.072Z,0.52
2024-03-30T00:48:14.065Z,0.52
2024-03-30T00:49:14.056Z,0.52
2024-03-30T00:50:14.071Z,0.51
2024-03-30T00:51:14.081Z,0.52
2024-03-30T00:52:14.090Z,0.52
2024-03-30T00:53:14.096Z,0.53
2024-03-30T00:54:14.108Z,0.52
2024-03-30T00:55:15.055Z,0.52
2024-03-30T00:56:25.782Z,0.52
2024-03-30T00:57:49.522Z,0.52
2024-03-30T00:58:29.993Z,0.52
2024-03-30T01:01:56.764Z,0.50
2024-03-30T01:02:57.180Z,0.50
2024-03-30T01:05:53.161Z,0.50
2024-03-30T01:06:32.876Z,0.50
2024-03-30T01:07:33.798Z,0.50
2024-03-30T01:09:57.809Z,0.50
2024-03-30T01:13:54.871Z,0.50
2024-03-30T01:14:53.187Z,0.50
2024-03-30T01:15:32.181Z,0.50
2024-03-30T01:16:32.170Z,0.50
2024-03-30T01:17:32.174Z,0.50
2024-03-30T01:18:32.172Z,0.50
2024-03-30T01:19:32.182Z,0.50
2024-03-30T01:20:32.185Z,0.50
2024-03-30T01:21:32.187Z,0.50
2024-03-30T01:22:32.206Z,0.50
2024-03-30T01:23:32.200Z,0.50
2024-03-30T01:24:32.191Z,0.50
2024-03-30T01:25:32.209Z,0.50
2024-03-30T01:26:32.191Z,0.50
2024-03-30T01:27:33.240Z,0.51
2024-03-30T01:28:32.202Z,0.50
2024-03-30T01:29:32.197Z,0.50
2024-03-30T01:30:32.196Z,0.50
2024-03-30T01:31:32.198Z,0.50
2024-03-30T01:32:32.212Z,0.50
2024-03-30T01:33:32.197Z,0.51
2024-03-30T01:34:32.196Z,0.50
2024-03-30T01:35:32.209Z,0.51
2024-03-30T01:36:32.204Z,0.51
2024-03-30T01:37:32.346Z,0.51
2024-03-30T01:38:32.206Z,0.51
2024-03-30T01:39:32.212Z,0.50
2024-03-30T01:40:32.210Z,0.50
2024-03-30T01:41:32.206Z,0.50
2024-03-30T01:42:32.217Z,0.51
2024-03-30T01:43:32.214Z,0.50
2024-03-30T01:44:32.208Z,0.51
2024-03-30T01:45:32.215Z,0.51
2024-03-30T01:46:32.214Z,0.51
2024-03-30T01:47:32.287Z,0.51
2024-03-30T01:48:32.214Z,0.51
2024-03-30T01:49:32.222Z,0.51
2024-03-30T01:50:32.217Z,0.52
2024-03-30T01:51:32.233Z,0.51
2024-03-30T01:52:32.242Z,0.51
2024-03-30T01:53:39.418Z,0.51
2024-03-30T01:54:33.232Z,0.51
2024-03-30T01:55:32.270Z,0.51
2024-03-30T01:56:32.228Z,0.52
2024-03-30T01:57:32.250Z,0.52
2024-03-30T01:58:32.230Z,0.52
2024-03-30T01:59:32.234Z,0.52
2024-03-30T02:00:32.233Z,0.52
2024-03-30T02:01:32.237Z,0.52
2024-03-30T02:02:32.243Z,0.53
2024-03-30T02:03:32.242Z,0.53
2024-03-30T02:04:32.250Z,0.53
2024-03-30T02:05:32.257Z,0.53
2024-03-30T02:06:32.267Z,0.53
2024-03-30T02:07:32.243Z,0.53
2024-03-30T02:08:32.239Z,0.52
2024-03-30T02:09:32.243Z,0.52
2024-03-30T02:10:32.244Z,0.52
2024-03-30T02:11:32.252Z,0.52
2024-03-30T02:12:32.253Z,0.51
2024-03-30T02:13:32.249Z,0.51
2024-03-30T02:14:32.252Z,0.52
2024-03-30T02:15:32.252Z,0.51
2024-03-30T02:16:32.265Z,0.52
2024-03-30T02:17:32.262Z,0.51
2024-03-30T02:18:32.261Z,0.51
2024-03-30T02:19:32.263Z,0.51
2024-03-30T02:20:32.288Z,0.52
2024-03-30T02:21:32.266Z,0.51
2024-03-30T02:22:32.284Z,0.52
2024-03-30T02:23:32.272Z,0.52
2024-03-30T02:24:32.277Z,0.52
2024-03-30T02:25:32.261Z,0.53
2024-03-30T02:26:32.273Z,0.52
2024-03-30T02:27:32.296Z,0.52
2024-03-30T02:28:32.275Z,0.52
2024-03-30T02:29:32.284Z,0.52
2024-03-30T02:30:32.282Z,0.53
2024-03-30T02:31:32.280Z,0.53
2024-03-30T02:32:32.316Z,0.53
2024-03-30T02:33:32.284Z,0.53
2024-03-30T02:34:32.286Z,0.52
2024-03-30T02:35:32.285Z,0.53
2024-03-30T02:36:32.287Z,0.55
2024-03-30T02:37:32.288Z,0.55
2024-03-30T02:38:32.290Z,0.54
2024-03-30T02:39:32.290Z,0.54
2024-03-30T02:40:32.295Z,0.55
2024-03-30T02:41:32.295Z,0.54
2024-03-30T02:42:32.314Z,0.54
2024-03-30T02:43:32.294Z,0.54
2024-03-30T02:44:32.294Z,0.53
2024-03-30T02:45:32.299Z,0.53
2024-03-30T02:46:32.296Z,0.54
2024-03-30T02:47:32.309Z,0.55
2024-03-30T02:48:32.302Z,0.55
2024-03-30T02:49:32.297Z,0.55
2024-03-30T02:50:32.308Z,0.55
2024-03-30T02:51:32.301Z,0.55
2024-03-30T02:52:32.307Z,0.55
2024-03-30T02:53:32.309Z,0.55
2024-03-30T02:54:32.310Z,0.54
2024-03-30T02:55:32.309Z,0.54
2024-03-30T02:56:32.314Z,0.54
2024-03-30T02:57:32.314Z,0.54
2024-03-30T02:58:32.332Z,0.53
2024-03-30T02:59:32.334Z,0.54
2024-03-30T03:00:32.348Z,0.55
2024-03-30T03:01:32.356Z,0.55
2024-03-30T03:02:32.363Z,0.55
2024-03-30T03:03:32.371Z,0.56
2024-03-30T03:04:32.375Z,0.55
2024-03-30T03:05:32.380Z,0.54
2024-03-30T03:06:32.402Z,0.55
2024-03-30T03:07:32.404Z,0.55
2024-03-30T03:08:32.451Z,0.55
2024-03-30T03:09:32.421Z,0.55
2024-03-30T03:10:32.441Z,0.56
2024-03-30T03:11:32.439Z,0.57
2024-03-30T03:12:32.452Z,0.57
2024-03-30T03:13:32.470Z,0.56
2024-03-30T03:14:32.481Z,0.56
2024-03-30T03:15:32.470Z,0.56
2024-03-30T03:16:32.488Z,0.57
2024-03-30T03:17:32.485Z,0.57
2024-03-30T03:18:32.519Z,0.57
2024-03-30T03:19:32.566Z,0.56
2024-03-30T03:20:32.528Z,0.56
2024-03-30T03:21:32.561Z,0.56
2024-03-30T03:22:32.544Z,0.56
2024-03-30T03:23:32.535Z,0.57
2024-03-30T03:24:32.553Z,0.57
2024-03-30T03:25:32.550Z,0.58
2024-03-30T03:26:32.559Z,0.57
2024-03-30T03:27:32.575Z,0.58
2024-03-30T03:28:32.590Z,0.58
2024-03-30T03:29:32.615Z,0.59
2024-03-30T03:30:32.602Z,0.59
2024-03-30T03:31:32.609Z,0.59
2024-03-30T03:32:32.626Z,0.58
2024-03-30T03:33:32.635Z,0.59
2024-03-30T03:34:32.642Z,0.59
2024-03-30T03:35:32.650Z,0.59
2024-03-30T03:36:32.663Z,0.59
2024-03-30T03:37:32.679Z,0.59
2024-03-30T03:38:32.704Z,0.58
2024-03-30T03:39:32.706Z,0.59
2024-03-30T03:40:32.714Z,0.59
2024-03-30T03:41:32.723Z,0.59
2024-03-30T03:42:32.735Z,0.59
2024-03-30T03:43:32.745Z,0.59
2024-03-30T03:44:32.768Z,0.59
2024-03-30T03:45:36.430Z,0.59
2024-03-30T03:46:32.764Z,0.60
2024-03-30T03:47:32.767Z,0.59
2024-03-30T03:48:32.763Z,0.60
2024-03-30T03:49:32.765Z,0.60
2024-03-30T03:50:32.771Z,0.60
2024-03-30T03:51:32.761Z,0.59
2024-03-30T03:52:32.767Z,0.60
2024-03-30T03:53:32.776Z,0.60
2024-03-30T03:54:32.782Z,0.60
2024-03-30T03:55:32.772Z,0.60
2024-03-30T03:56:32.781Z,0.60
2024-03-30T03:57:32.775Z,0.59
2024-03-30T03:58:32.781Z,0.60
2024-03-30T03:59:32.780Z,0.60
2024-03-30T04:00:32.782Z,0.60
2024-03-30T04:01:32.782Z,0.60
2024-03-30T04:02:32.783Z,0.60
2024-03-30T04:03:32.787Z,0.60
2024-03-30T04:04:32.781Z,0.59
2024-03-30T04:05:32.782Z,0.59
2024-03-30T04:06:32.792Z,0.59
2024-03-30T04:07:33.299Z,0.58
2024-03-30T04:08:32.808Z,0.58
2024-03-30T04:09:32.801Z,0.59
2024-03-30T04:10:32.788Z,0.60
2024-03-30T04:11:32.793Z,0.60
2024-03-30T04:12:32.789Z,0.59
2024-03-30T04:13:32.803Z,0.60
2024-03-30T04:14:32.793Z,0.60
2024-03-30T04:15:32.796Z,0.59
2024-03-30T04:16:34.624Z,0.59
2024-03-30T04:17:32.799Z,0.59
2024-03-30T04:18:32.802Z,0.60
2024-03-30T04:19:32.797Z,0.60
2024-03-30T04:20:32.797Z,0.60
2024-03-30T04:21:32.799Z,0.62
2024-03-30T04:22:32.802Z,0.61
2024-03-30T04:23:33.306Z,0.62
2024-03-30T04:24:32.857Z,0.62
2024-03-30T04:25:32.806Z,0.62
2024-03-30T04:26:32.807Z,0.62
2024-03-30T04:27:32.806Z,0.63
2024-03-30T04:28:32.815Z,0.62
2024-03-30T04:29:32.811Z,0.63
2024-03-30T04:30:32.817Z,0.63
2024-03-30T04:31:32.818Z,0.63
2024-03-30T04:32:32.860Z,0.63
2024-03-30T04:33:32.825Z,0.63
2024-03-30T04:34:32.819Z,0.62
2024-03-30T04:35:32.824Z,0.61
2024-03-30T04:36:32.832Z,0.62
2024-03-30T04:37:32.834Z,0.62
2024-03-30T04:38:32.827Z,0.63
2024-03-30T04:39:32.823Z,0.61
2024-03-30T04:40:32.824Z,0.62
2024-03-30T04:41:32.829Z,0.62
2024-03-30T04:42:32.825Z,0.62
2024-03-30T04:43:32.829Z,0.63
2024-03-30T04:44:32.835Z,0.64
2024-03-30T04:45:32.832Z,0.63
2024-03-30T04:46:32.834Z,0.63
2024-03-30T04:47:32.887Z,0.64
2024-03-30T04:48:32.839Z,0.63
2024-03-30T04:49:32.838Z,0.63
2024-03-30T04:50:32.839Z,0.64
2024-03-30T04:51:32.838Z,0.65
2024-03-30T04:52:32.850Z,0.65
2024-03-30T04:53:32.854Z,0.65
2024-03-30T04:54:32.839Z,0.65
2024-03-30T04:55:32.846Z,0.65
2024-03-30T04:56:32.844Z,0.65
2024-03-30T04:57:32.843Z,0.65
2024-03-30T04:58:32.854Z,0.65
2024-03-30T04:59:32.851Z,0.65
2024-03-30T05:00:32.876Z,0.66
2024-03-30T05:01:32.859Z,0.65
2024-03-30T05:02:32.856Z,0.66
2024-03-30T05:03:32.862Z,0.66
2024-03-30T05:04:32.861Z,0.66
2024-03-30T05:05:32.874Z,0.65
2024-03-30T05:06:32.862Z,0.66
2024-03-30T05:07:32.873Z,0.67
2024-03-30T05:08:32.870Z,0.66
2024-03-30T05:09:32.867Z,0.66
2024-03-30T05:10:32.880Z,0.66
2024-03-30T05:11:32.883Z,0.66
2024-03-30T05:12:32.883Z,0.66
2024-03-30T05:13:32.882Z,0.66
2024-03-30T05:14:32.876Z,0.66
2024-03-30T05:15:32.876Z,0.66
2024-03-30T05:16:32.878Z,0.66
2024-03-30T05:17:32.901Z,0.66
2024-03-30T05:18:32.889Z,0.65
2024-03-30T05:19:32.886Z,0.65
2024-03-30T05:20:32.891Z,0.65
2024-03-30T05:21:32.894Z,0.66
2024-03-30T05:22:32.912Z,0.65
2024-03-30T05:23:32.891Z,0.66
2024-03-30T05:24:32.903Z,0.66
2024-03-30T05:25:32.898Z,0.66
2024-03-30T05:26:32.899Z,0.68
2024-03-30T05:27:34.464Z,0.68
2024-03-30T05:28:32.903Z,0.68
2024-03-30T05:29:32.905Z,0.68
2024-03-30T05:30:32.919Z,0.68
2024-03-30T05:31:40.339Z,0.50
2024-03-30T05:32:40.115Z,0.50
2024-03-30T05:33:40.119Z,0.50
2024-03-30T05:34:40.115Z,0.50
2024-03-30T05:35:40.116Z,0.50
2024-03-30T05:36:40.128Z,0.50
2024-03-30T05:37:40.120Z,0.51
2024-03-30T05:38:40.120Z,0.51
2024-03-30T05:39:40.118Z,0.50
2024-03-30T05:40:40.128Z,0.50
2024-03-30T05:41:40.123Z,0.51
2024-03-30T05:42:40.125Z,0.51
2024-03-30T05:43:40.131Z,0.51
2024-03-30T05:44:40.135Z,0.50
2024-03-30T05:45:40.138Z,0.50
2024-03-30T05:46:40.140Z,0.52
2024-03-30T05:47:40.147Z,0.50
2024-03-30T05:48:40.150Z,0.50
2024-03-30T05:49:40.165Z,0.52
2024-03-30T05:50:40.138Z,0.52
2024-03-30T05:51:40.138Z,0.50
2024-03-30T05:52:40.132Z,0.50
2024-03-30T05:53:40.147Z,0.52
2024-03-30T05:54:40.138Z,0.53
2024-03-30T05:55:40.134Z,0.50
2024-03-30T05:56:40.167Z,0.51
2024-03-30T05:57:40.142Z,0.51
2024-03-30T05:58:40.147Z,0.51
2024-03-30T05:59:40.208Z,0.51
2024-03-30T06:00:40.145Z,0.51
2024-03-30T06:01:40.144Z,0.52
2024-03-30T06:02:40.149Z,0.51
2024-03-30T06:03:40.144Z,0.51
2024-03-30T06:04:40.145Z,0.50
2024-03-30T06:05:40.174Z,0.51
2024-03-30T06:06:40.158Z,0.50
2024-03-30T06:07:40.183Z,0.51
2024-03-30T06:08:40.223Z,0.51
2024-03-30T06:09:40.254Z,0.52
2024-03-30T06:10:40.281Z,0.51
2024-03-30T06:11:40.302Z,0.52
2024-03-30T06:12:40.330Z,0.52
2024-03-30T06:13:40.336Z,0.52
2024-03-30T06:14:40.346Z,0.51
2024-03-30T06:15:40.368Z,0.53
2024-03-30T06:16:40.426Z,0.52
2024-03-30T06:17:40.493Z,0.53
2024-03-30T06:18:40.566Z,0.53
2024-03-30T06:19:40.628Z,0.51
2024-03-30T06:20:40.683Z,0.52
2024-03-30T06:21:40.754Z,0.50
2024-03-30T06:22:40.798Z,0.53
2024-03-30T06:23:40.855Z,0.54
2024-03-30T06:24:40.893Z,0.53
2024-03-30T06:25:40.945Z,0.55
2024-03-30T06:26:40.970Z,0.58
2024-03-30T06:27:41.003Z,0.60
2024-03-30T06:28:41.036Z,0.60
2024-03-30T06:29:41.051Z,0.60
2024-03-30T06:30:41.072Z,0.59
2024-03-30T06:31:41.111Z,0.60
2024-03-30T06:32:41.102Z,0.61
2024-03-30T06:33:41.117Z,0.60
2024-03-30T06:34:43.247Z,0.59
2024-03-30T06:35:41.132Z,0.62
2024-03-30T06:36:41.135Z,0.62
2024-03-30T06:37:41.181Z,0.60
2024-03-30T06:38:41.139Z,0.59
2024-03-30T06:39:41.162Z,0.60
2024-03-30T06:40:41.211Z,0.58
2024-03-30T06:41:41.270Z,0.58
2024-03-30T06:42:41.330Z,0.58
2024-03-30T06:43:41.399Z,0.58
2024-03-30T06:44:41.459Z,0.59
2024-03-30T06:45:41.512Z,0.59
2024-03-30T06:46:41.567Z,0.55
2024-03-30T06:47:41.609Z,0.55
2024-03-30T06:48:41.644Z,0.56
2024-03-30T06:49:41.672Z,0.56
2024-03-30T06:50:41.704Z,0.57
2024-03-30T06:51:41.735Z,0.56
2024-03-30T06:52:41.759Z,0.58
2024-03-30T06:53:41.795Z,0.60
2024-03-30T06:54:41.823Z,0.58
2024-03-30T06:55:41.857Z,0.60
2024-03-30T06:56:41.892Z,0.61
2024-03-30T06:57:41.935Z,0.62
2024-03-30T06:58:41.937Z,0.61
2024-03-30T06:59:41.947Z,0.62
2024-03-30T07:00:41.973Z,0.63
2024-03-30T07:01:41.970Z,0.64
2024-03-30T07:02:41.986Z,0.63
2024-03-30T07:03:41.991Z,0.63
2024-03-30T07:04:41.981Z,0.64
2024-03-30T07:05:41.992Z,0.66
2024-03-30T07:06:42.002Z,0.66
2024-03-30T07:07:41.999Z,0.65
2024-03-30T07:08:42.014Z,0.67
2024-03-30T07:09:42.026Z,0.66
2024-03-30T07:10:42.042Z,0.62
2024-03-30T07:11:42.053Z,0.67
2024-03-30T07:12:42.054Z,0.61
2024-03-30T07:13:42.084Z,0.62
2024-03-30T07:14:42.117Z,0.58
2024-03-30T07:15:42.150Z,0.55
2024-03-30T07:16:42.200Z,0.53
2024-03-30T07:17:43.198Z,0.51
2024-03-30T07:18:42.197Z,0.49
2024-03-30T07:19:42.214Z,0.48
2024-03-30T07:20:42.200Z,0.45
2024-03-30T07:21:42.200Z,0.43
2024-03-30T07:22:42.203Z,0.50
2024-03-30T07:23:42.209Z,0.50
2024-03-30T07:24:42.207Z,0.50
2024-03-30T07:25:42.208Z,0.50
2024-03-30T07:26:42.210Z,0.50
2024-03-30T07:27:42.211Z,0.50
2024-03-30T07:28:42.219Z,0.50
2024-03-30T07:29:42.214Z,0.51
2024-03-30T07:30:42.234Z,0.51
2024-03-30T07:31:42.223Z,0.50
2024-03-30T07:32:42.214Z,0.50
2024-03-30T07:33:42.220Z,0.52
2024-03-30T07:34:42.218Z,0.51
2024-03-30T07:35:42.226Z,0.51
2024-03-30T07:36:42.228Z,0.50
2024-03-30T07:37:42.250Z,0.51
2024-03-30T07:38:42.276Z,0.51
2024-03-30T07:39:42.352Z,0.51
2024-03-30T07:40:42.394Z,0.50
2024-03-30T07:41:42.439Z,0.51
2024-03-30T07:42:42.468Z,0.50
2024-03-30T07:43:42.500Z,0.50
2024-03-30T07:44:42.512Z,0.51
2024-03-30T07:45:42.544Z,0.50
2024-03-30T07:46:42.538Z,0.50
2024-03-30T07:47:42.568Z,0.52
2024-03-30T07:48:42.602Z,0.51
2024-03-30T07:49:42.650Z,0.50
2024-03-30T07:50:42.690Z,0.51
2024-03-30T07:51:42.760Z,0.52
2024-03-30T07:52:42.825Z,0.50
2024-03-30T07:53:42.894Z,0.50
2024-03-30T07:54:42.967Z,0.52
2024-03-30T07:55:43.021Z,0.50
2024-03-30T07:56:43.070Z,0.50
2024-03-30T07:57:43.126Z,0.50
2024-03-30T07:58:43.173Z,0.51
2024-03-30T07:59:43.208Z,0.50
2024-03-30T08:00:43.250Z,0.50
2024-03-30T08:01:43.291Z,0.50
2024-03-30T08:02:43.341Z,0.53
2024-03-30T08:03:43.394Z,0.50
2024-03-30T08:04:43.427Z,0.51
2024-03-30T08:05:43.478Z,0.50
2024-03-30T08:06:43.517Z,0.51
2024-03-30T08:07:43.564Z,0.50
2024-03-30T08:08:43.614Z,0.52
2024-03-30T08:09:43.655Z,0.49
2024-03-30T08:10:43.706Z,0.51
2024-03-30T08:11:43.760Z,0.51
2024-03-30T08:12:43.793Z,0.52
2024-03-30T08:13:43.847Z,0.50
2024-03-30T08:14:43.886Z,0.52
2024-03-30T08:15:43.938Z,0.52
2024-03-30T08:16:43.993Z,0.53
2024-03-30T08:17:44.112Z,0.53
2024-03-30T08:18:44.113Z,0.52
2024-03-30T08:19:44.174Z,0.52
2024-03-30T08:20:44.239Z,0.52
2024-03-30T08:21:44.845Z,0.53
2024-03-30T08:22:44.379Z,0.52
2024-03-30T08:23:44.430Z,0.54
2024-03-30T08:24:44.473Z,0.55
2024-03-30T08:25:44.516Z,0.54
2024-03-30T08:26:44.536Z,0.54
2024-03-30T08:27:44.544Z,0.54
2024-03-30T08:28:44.568Z,0.53
2024-03-30T08:29:44.560Z,0.53
2024-03-30T08:30:44.572Z,0.54
2024-03-30T08:31:44.583Z,0.57
2024-03-30T08:32:44.603Z,0.58
2024-03-30T08:33:44.633Z,0.57
2024-03-30T08:34:44.672Z,0.57
2024-03-30T08:35:44.687Z,0.55
2024-03-30T08:36:44.732Z,0.55
2024-03-30T08:37:44.773Z,0.54
2024-03-30T08:38:44.836Z,0.56
2024-03-30T08:39:44.898Z,0.54
2024-03-30T08:40:45.820Z,0.54
2024-03-30T08:41:45.014Z,0.51
2024-03-30T08:42:45.088Z,0.54
2024-03-30T08:43:45.171Z,0.53
2024-03-30T08:44:45.186Z,0.52
2024-03-30T08:45:45.197Z,0.51
2024-03-30T08:46:45.234Z,0.52
2024-03-30T08:47:45.215Z,0.53
2024-03-30T08:48:45.250Z,0.52
2024-03-30T08:49:45.226Z,0.52
2024-03-30T08:50:45.235Z,0.52
2024-03-30T08:51:45.255Z,0.52
2024-03-30T08:52:45.247Z,0.53
2024-03-30T08:53:45.295Z,0.52
2024-03-30T08:54:45.266Z,0.53
2024-03-30T08:55:45.278Z,0.52
2024-03-30T08:56:45.278Z,0.51
2024-03-30T08:57:45.299Z,0.51
2024-03-30T08:58:45.305Z,0.51
2024-03-30T08:59:45.304Z,0.51
2024-03-30T09:00:45.311Z,0.52
2024-03-30T09:01:45.361Z,0.52
2024-03-30T09:02:45.325Z,0.52
2024-03-30T09:03:45.357Z,0.51
2024-03-30T09:04:45.338Z,0.51
2024-03-30T09:05:45.341Z,0.51
2024-03-30T09:06:45.353Z,0.52
2024-03-30T09:07:45.348Z,0.53
2024-03-30T09:08:45.383Z,0.51
2024-03-30T09:09:45.363Z,0.50
2024-03-30T09:10:46.346Z,0.54
2024-03-30T09:11:45.396Z,0.52
2024-03-30T09:12:45.408Z,0.53
2024-03-30T09:13:45.467Z,0.53
2024-03-30T09:14:45.491Z,0.51
2024-03-30T09:15:45.479Z,0.51
2024-03-30T09:16:45.511Z,0.54
2024-03-30T09:17:45.544Z,0.53
2024-03-30T09:18:45.593Z,0.53
2024-03-30T09:19:45.586Z,0.51
2024-03-30T09:20:45.598Z,0.51
2024-03-30T09:21:45.605Z,0.51
2024-03-30T09:22:45.633Z,0.51
2024-03-30T09:23:45.673Z,0.51
2024-03-30T09:24:45.718Z,0.54
2024-03-30T09:25:45.751Z,0.54
2024-03-30T09:26:45.788Z,0.52
2024-03-30T09:27:45.825Z,0.53
2024-03-30T09:28:45.883Z,0.52
2024-03-30T09:29:45.926Z,0.54
2024-03-30T09:30:45.968Z,0.57
2024-03-30T09:31:46.016Z,0.57
2024-03-30T09:32:46.067Z,0.57
2024-03-30T09:33:46.122Z,0.60
2024-03-30T09:34:46.175Z,0.57
2024-03-30T09:35:46.231Z,0.58
2024-03-30T09:36:46.291Z,0.56
2024-03-30T09:37:46.354Z,0.52
2024-03-30T09:38:46.404Z,0.54
2024-03-30T09:39:46.436Z,0.56
2024-03-30T09:40:46.494Z,0.52
2024-03-30T09:41:46.541Z,0.55
2024-03-30T09:42:46.585Z,0.57
2024-03-30T09:43:46.623Z,0.61
2024-03-30T09:44:46.652Z,0.57
2024-03-30T09:45:46.675Z,0.60
2024-03-30T09:46:46.701Z,0.57
2024-03-30T09:47:46.767Z,0.57
2024-03-30T09:48:46.788Z,0.57
2024-03-30T09:49:46.816Z,0.56
2024-03-30T09:50:46.821Z,0.59
2024-03-30T09:51:46.834Z,0.55
2024-03-30T09:52:46.847Z,0.56
2024-03-30T09:53:46.890Z,0.56
2024-03-30T09:54:46.891Z,0.57
2024-03-30T09:55:46.912Z,0.56
2024-03-30T09:56:46.944Z,0.53
2024-03-30T09:57:46.966Z,0.55
2024-03-30T09:58:46.987Z,0.57
2024-03-30T09:59:46.988Z,0.56
2024-03-30T10:00:47.009Z,0.56
2024-03-30T10:01:47.003Z,0.57
2024-03-30T10:02:47.026Z,0.57
2024-03-30T10:03:47.060Z,0.57
2024-03-30T10:04:47.087Z,0.59
2024-03-30T10:05:47.112Z,0.58
2024-03-30T10:06:47.115Z,0.57
2024-03-30T10:07:47.242Z,0.57
2024-03-30T10:08:47.145Z,0.57
2024-03-30T10:09:47.146Z,0.55
2024-03-30T10:10:47.164Z,0.55
2024-03-30T10:11:47.175Z,0.55
2024-03-30T10:12:47.191Z,0.54
2024-03-30T10:13:47.213Z,0.54
2024-03-30T10:14:47.212Z,0.52
2024-03-30T10:15:47.232Z,0.51
2024-03-30T10:16:47.283Z,0.50
2024-03-30T10:17:47.274Z,0.51
2024-03-30T10:18:47.298Z,0.51
2024-03-30T10:19:47.318Z,0.50
2024-03-30T10:20:47.350Z,0.52
2024-03-30T10:21:47.407Z,0.53
2024-03-30T10:22:47.447Z,0.53
2024-03-30T10:23:47.486Z,0.54
2024-03-30T10:24:47.514Z,0.50
2024-03-30T10:25:47.546Z,0.51
2024-03-30T10:26:47.585Z,0.51
2024-03-30T10:27:47.632Z,0.50
2024-03-30T10:28:47.663Z,0.51
2024-03-30T10:29:47.681Z,0.50
2024-03-30T10:30:47.701Z,0.51
2024-03-30T10:31:47.742Z,0.50
2024-03-30T10:32:47.810Z,0.50
2024-03-30T10:33:47.878Z,0.51
2024-03-30T10:34:47.930Z,0.50
2024-03-30T10:35:47.969Z,0.50
2024-03-30T10:36:48.055Z,0.51
2024-03-30T10:37:48.107Z,0.50
2024-03-30T10:38:48.147Z,0.50
2024-03-30T10:39:48.209Z,0.50
2024-03-30T10:40:48.278Z,0.51
2024-03-30T10:41:48.306Z,0.51
2024-03-30T10:42:48.366Z,0.50
2024-03-30T10:43:48.430Z,0.51
2024-03-30T10:44:48.494Z,0.51
2024-03-30T10:45:48.561Z,0.50
2024-03-30T10:46:48.623Z,0.51
2024-03-30T10:47:48.676Z,0.51
2024-03-30T10:48:48.748Z,0.50
2024-03-30T10:49:48.822Z,0.48
2024-03-30T10:50:48.900Z,0.53
2024-03-30T10:51:49.017Z,0.51
2024-03-30T10:52:49.002Z,0.50
2024-03-30T10:53:49.070Z,0.51
2024-03-30T10:54:49.115Z,0.51
2024-03-30T10:55:49.162Z,0.50
2024-03-30T10:56:49.223Z,0.50
2024-03-30T10:57:49.264Z,0.50
2024-03-30T10:58:49.319Z,0.51
2024-03-30T10:59:49.365Z,0.51
2024-03-30T11:00:49.429Z,0.51
2024-03-30T11:01:49.465Z,0.50
2024-03-30T11:02:49.480Z,0.51
2024-03-30T11:03:49.516Z,0.51
2024-03-30T11:04:49.541Z,0.50
2024-03-30T11:05:49.569Z,0.52
2024-03-30T11:06:49.629Z,0.54
2024-03-30T11:07:49.679Z,0.54
2024-03-30T11:08:49.726Z,0.53
2024-03-30T11:09:49.774Z,0.55
2024-03-30T11:10:49.827Z,0.52
2024-03-30T11:11:49.870Z,0.52
2024-03-30T11:12:49.906Z,0.53
2024-03-30T11:13:49.947Z,0.52
2024-03-30T11:14:49.969Z,0.54
2024-03-30T11:15:49.996Z,0.56
2024-03-30T11:16:50.021Z,0.56
2024-03-30T11:17:50.052Z,0.54
2024-03-30T11:18:50.079Z,0.59
2024-03-30T11:19:50.093Z,0.65
2024-03-30T11:20:50.130Z,0.71
2024-03-30T11:21:50.142Z,0.75
2024-03-30T11:22:50.182Z,0.84
2024-03-30T11:23:50.190Z,0.84
2024-03-30T11:24:50.203Z,0.92
2024-03-30T11:25:50.221Z,0.96
2024-03-30T11:26:50.227Z,1.02
2024-03-30T11:27:50.230Z,1.07
2024-03-30T11:28:50.232Z,1.14
2024-03-30T11:29:50.239Z,1.15
2024-03-30T11:30:54.212Z,1.23
2024-03-30T11:31:50.256Z,1.23
2024-03-30T11:32:50.256Z,1.24
2024-03-30T11:33:50.255Z,1.27
2024-03-30T11:34:50.261Z,1.32
2024-03-30T11:35:50.265Z,1.43
2024-03-30T11:36:50.265Z,1.46
2024-03-30T11:37:50.261Z,1.51
2024-03-30T11:38:50.274Z,1.59
2024-03-30T11:39:50.275Z,1.66
2024-03-30T11:40:50.270Z,1.68
2024-03-30T11:41:50.269Z,1.69
2024-03-30T11:42:50.283Z,1.77
2024-03-30T11:43:50.293Z,1.79
2024-03-30T11:44:50.275Z,1.88
2024-03-30T11:45:50.283Z,1.95
2024-03-30T11:46:50.278Z,1.97
2024-03-30T11:47:50.290Z,2.03
2024-03-30T11:48:50.282Z,2.07
2024-03-30T11:49:50.282Z,2.08
2024-03-30T11:50:50.294Z,2.22
2024-03-30T11:51:50.279Z,2.29
2024-03-30T11:52:50.285Z,2.31
2024-03-30T11:53:50.305Z,2.19
2024-03-30T11:54:50.293Z,2.31
2024-03-30T11:55:50.293Z,2.29
2024-03-30T11:56:50.293Z,2.35
2024-03-30T11:57:50.291Z,2.30
2024-03-30T11:58:50.306Z,2.29
2024-03-30T11:59:50.298Z,2.32
2024-03-30T12:00:50.300Z,2.39
2024-03-30T12:01:50.304Z,2.46
2024-03-30T12:02:50.305Z,2.59
2024-03-30T12:03:50.309Z,2.50
2024-03-30T12:04:50.307Z,2.48
2024-03-30T12:05:50.309Z,2.48
2024-03-30T12:06:50.307Z,2.44
2024-03-30T12:07:50.306Z,2.45
2024-03-30T12:08:50.332Z,2.41
2024-03-30T12:09:50.345Z,2.33
2024-03-30T12:10:50.313Z,2.27
2024-03-30T12:11:50.310Z,2.24
2024-03-30T12:12:50.360Z,2.17
2024-03-30T12:13:50.439Z,2.10
2024-03-30T12:14:50.457Z,2.05
2024-03-30T12:15:50.515Z,2.04
2024-03-30T12:16:50.581Z,2.06
2024-03-30T12:17:50.630Z,2.00
2024-03-30T12:18:50.687Z,1.94
2024-03-30T12:19:50.754Z,2.02
2024-03-30T12:20:50.810Z,1.92
2024-03-30T12:21:50.867Z,1.94
2024-03-30T12:22:50.926Z,1.86
2024-03-30T12:23:51.003Z,1.80
2024-03-30T12:24:51.043Z,1.72
2024-03-30T12:25:51.122Z,1.70
2024-03-30T12:26:51.183Z,1.69
2024-03-30T12:27:51.254Z,1.73
2024-03-30T12:28:51.334Z,1.69
2024-03-30T12:29:51.380Z,1.68
2024-03-30T12:30:51.454Z,1.69
2024-03-30T12:31:51.519Z,1.61
2024-03-30T12:32:51.599Z,1.59
2024-03-30T12:33:51.683Z,1.61
2024-03-30T12:34:51.734Z,1.63
2024-03-30T12:35:51.790Z,1.61
2024-03-30T12:36:51.853Z,1.60
2024-03-30T12:37:51.928Z,1.60
2024-03-30T12:38:52.034Z,1.59
2024-03-30T12:39:52.079Z,1.50
2024-03-30T12:40:52.171Z,1.53
2024-03-30T12:41:52.211Z,1.50
2024-03-30T12:42:52.284Z,1.51
2024-03-30T12:43:52.428Z,1.50
2024-03-30T12:44:52.444Z,1.54
2024-03-30T12:45:52.502Z,1.52
2024-03-30T12:46:52.565Z,1.52
2024-03-30T12:47:52.632Z,1.46
2024-03-30T12:48:52.700Z,1.38
2024-03-30T12:49:52.772Z,1.35
2024-03-30T12:50:52.818Z,1.38
2024-03-30T12:51:52.868Z,1.35
2024-03-30T12:52:52.916Z,1.36
2024-03-30T12:59:12.974Z,0.50
2024-03-30T12:59:40.280Z,0.50
2024-03-30T13:01:17.806Z,0.50
2024-03-30T13:02:08.795Z,0.50
2024-03-30T13:03:40.332Z,0.50
2024-03-30T13:04:40.308Z,0.50
2024-03-30T13:05:44.855Z,0.50
2024-03-30T13:08:08.362Z,0.50
2024-03-30T13:09:18.863Z,0.50
2024-03-30T13:10:46.320Z,0.50
2024-03-30T13:11:40.364Z,0.50
2024-03-30T13:12:55.354Z,0.50
2024-03-30T13:13:51.360Z,0.50
2024-03-30T13:14:45.315Z,0.50
2024-03-30T13:15:51.675Z,0.50
2024-03-30T13:19:47.290Z,0.50
2024-03-30T13:20:40.346Z,0.50
2024-03-30T13:21:40.342Z,0.50
2024-03-30T13:22:40.350Z,0.50
2024-03-30T13:23:40.345Z,0.50
2024-03-30T13:24:40.361Z,0.50
2024-03-30T13:25:40.349Z,0.50
2024-03-30T13:26:40.349Z,0.50
2024-03-30T13:27:40.349Z,0.50
2024-03-30T13:28:40.351Z,0.50
2024-03-30T13:29:40.358Z,0.51
2024-03-30T13:30:40.353Z,0.50
2024-03-30T13:31:40.366Z,0.50
2024-03-30T13:32:40.358Z,0.51
2024-03-30T13:33:40.395Z,0.50
2024-03-30T13:34:40.362Z,0.50
2024-03-30T13:35:40.364Z,0.52
2024-03-30T13:36:40.368Z,0.51
2024-03-30T13:37:40.381Z,0.53
2024-03-30T13:38:40.373Z,0.50
2024-03-30T13:39:40.370Z,0.50
2024-03-30T13:40:40.366Z,0.51
2024-03-30T13:41:43.073Z,0.50
2024-03-30T13:42:40.374Z,0.52
2024-03-30T13:43:40.380Z,0.52
2024-03-30T13:44:40.378Z,0.50
2024-03-30T13:45:40.375Z,0.50